Terminal Aerodrome Forecast
Issued by NWS

Home | Current Version | Previous Version | Text Only | Print | Product List | Glossary On
Versions: 1 2 3 4 5 6 7 8 9 10 11 12 13 14 15 16 17 18
000
FTUS42 KTAE 180539
TAFVLD
TAF
KVLD 180539Z 1806/1906 16004KT P6SM BKN060
     FM180900 00000KT 2SM BR OVC003
     FM181400 22003KT P6SM OVC010
     FM182100 22010KT P6SM VCTS OVC050CB
     FM190000 20004KT P6SM -RA SCT025 OVC050=

USA.gov is the U.S. government's official web portal to all federal, state and local government web resources and services.